Airfield :
LOGIN :

Register | Disclaimer

   EN    FR    IT 

 










Legend :    VFR   Marginal VFR   IFR   Intensive IFR   Very Intensive IFR
Visi :
Ceiling :
>= 8 km
>= 3000ft
5 to 8 km
1000 to 3000 ft
1500m to 5 km
500 to 1000 ft
800 to 1500m
200 to 500 ft
< 800m
< 200 ft
Symbols :   Thunderstorms  Fog  Heavy snow  Heavy precipitations  Wind > 20 kt
SIGMETs :     Misc.  Thunderstorms  Icing  Turbulence  Mountain Waves  Volcanic Ashes






- Airport Elevation : 289 ft
- IATA code : BSK


DAUB - Mohamed Khider

CURRENT METAR :
  • 241900Z 29006KT 6000 BKN040 34/06 Q1009

EXPIRED METARs :
  • 241840Z 29015KT 3000 DRSA SCT040 34/07 Q1009
  • 241800Z 30019G29KT 1000 BLSA FEW033CB SCT040 34/08 Q1008
  • 241700Z 30016G26KT 2500 DRSA FEW033CB SCT040 37/03 Q1006

TAF AMD TAF DAUB
Valid from the 24 at 18:00 until the 25 at 18:00 UTC


241800Z 2418/2518 30019G30KT 0800 BLSA FEW033CB
PROB30
TEMPO 2420/2503 2000 DRSA
BECMG 2501/2503 22008KT 6000 SCT040



MET'MAP, your aeronautical weather chart ! - Copyright ORBIFLY December 2007 - Disclaimer

ORBIFLY MET'MAP TEAM :

Programming & Development : Alexandra Zaïnal
Original concept : Baudouin d'Aumeries
Technical & hardware support : Manuel Goepfert
Assistance : Marc-Olivier Méhu

Contact : metmap@orbifly.com




SOURCES & CREDITS :

   NOAA